< < Back
Terminal Aerodrome Forecast


Current Version              Previous Versions:   1  2  3  4  5  6  7  8  9  

Terminal Aerodrome Forecast

505
FTUS42 KCHS 312124 AAB
TAFCHS
TAF AMD
KCHS 312124Z 3121/0118 20010KT P6SM VCTS SCT030CB BKN120
     FM312300 20007KT P6SM SCT025 BKN100
     FM010300 24005KT P6SM SCT025 BKN180=



Latest METAR

915
SAUS80 KWBC 010100 CCB
MTRCHS
METAR KCHS 010056Z 00000KT 10SM BKN150 BKN200 27/24 A2992 RMK AO2 SLP131
T02670239


USA.gov is the U.S. government's official web portal to all federal, state and local government web resources and services.